Islander — WDA4825 — position and weather

sailwx.info

Track history (hours):
 
Tides and Currents Weather Stations Pressure Air Temp Water Temp Dewpoint Dewpoint Depression Visibility Wind Speed Wind Dir Waves Ship Positions

Islander

Owner: SUPER BOAT INC, VENTURA, CA. More information available from US FCC via Universal Licensing System and Coast Guard Vessel Documentation Center.

Last reported at 2018-Jun-19 17:28 UTC. Time now 2018-Jun-19 17:46 UTC.
Position N 34°11' W 119°19'.

Length 20 m; draft 2.1 m.

Type: Passenger vessel. MMSI: 366813530.

Date/timePositionNaut miles runAvg speedWind from/ knotsBaromVisibWave heightAir tempDewpointWater temp
2018-Jun-19 17:28N 34°11' W 119°19'4 9.0
2018-Jun-19 17:00N 34°15' W 119°16'0 0.1
2018-Jun-19 16:30N 34°15' W 119°16'0 0.0
2018-Jun-19 15:58N 34°15' W 119°16'0 0.0
2018-Jun-19 15:30N 34°15' W 119°16'0 0.0
2018-Jun-19 15:00N 34°15' W 119°16'0 0.0
2018-Jun-19 14:28N 34°15' W 119°16'0 0.0
2018-Jun-19 13:59N 34°15' W 119°16'0 0.0
2018-Jun-19 13:28N 34°15' W 119°16'0 0.0
2018-Jun-19 12:58N 34°15' W 119°16'0 0.0
2018-Jun-19 12:30N 34°15' W 119°16'0 0.0
2018-Jun-19 11:59N 34°15' W 119°16'0 0.0
2018-Jun-19 11:30N 34°15' W 119°16'0 0.0
2018-Jun-19 11:00N 34°15' W 119°16'0 0.0
2018-Jun-19 10:30N 34°15' W 119°16'0 0.0
2018-Jun-19 09:59N 34°15' W 119°16'0 0.0
2018-Jun-19 09:30N 34°15' W 119°16'0 0.0
2018-Jun-19 08:59N 34°15' W 119°16'0 0.0
2018-Jun-19 08:27N 34°15' W 119°16'0 0.0
2018-Jun-19 07:58N 34°15' W 119°16'0 0.0
2018-Jun-19 07:30N 34°15' W 119°16'0 0.0
2018-Jun-19 06:59N 34°15' W 119°16'0 0.0
2018-Jun-19 06:28N 34°15' W 119°16'0 0.0
2018-Jun-19 06:00N 34°15' W 119°16'0 0.0
2018-Jun-19 05:31N 34°15' W 119°16'0 0.0
2018-Jun-19 04:58N 34°15' W 119°16'0 0.0
2018-Jun-19 04:29N 34°15' W 119°16'0 0.0
2018-Jun-19 03:58N 34°15' W 119°16'0 0.0
2018-Jun-19 03:28N 34°15' W 119°16'0 0.0
2018-Jun-19 03:00N 34°15' W 119°16'0 0.0
2018-Jun-19 02:30N 34°15' W 119°16'0 0.0
2018-Jun-19 01:59N 34°15' W 119°16'0 0.0
2018-Jun-19 01:30N 34°15' W 119°16'0 0.0
2018-Jun-19 01:00N 34°15' W 119°16'0 0.1
2018-Jun-19 00:30N 34°15' W 119°16'815.8
2018-Jun-19 00:00N 34°11' W 119°24'917.4
2018-Jun-18 23:30N 34°06' W 119°33'612.1
2018-Jun-18 23:00N 34°03' W 119°39'5 9.8
2018-Jun-18 22:30N 34°03' W 119°45'713.1
2018-Jun-18 21:59N 34°05' W 119°53'918.9
2018-Jun-18 21:29N 34°00' W 120°03'1 2.9
2018-Jun-18 21:00N 34°02' W 120°03'0 0.0
2018-Jun-18 20:30N 34°02' W 120°03'0 0.0
2018-Jun-18 20:00N 34°02' W 120°03'0 0.0
2018-Jun-18 19:30N 34°02' W 120°03'0 0.0
2018-Jun-18 19:00N 34°02' W 120°03'1 2.7
2018-Jun-18 18:30N 34°01' W 120°03'816.2
2018-Jun-18 18:00N 33°58' W 119°54'1219.2
2018-Jun-18 17:24N 33°58' W 119°40'818.9
2018-Jun-18 16:58N 34°02' W 119°31'2 5.0
2018-Jun-18 16:29N 34°03' W 119°33'4 9.4
2018-Jun-18 16:00N 34°05' W 119°29'1119.4
2018-Jun-18 15:28N 34°13' W 119°19'4 7.7
2018-Jun-18 15:00N 34°15' W 119°16'0 0.0
2018-Jun-18 14:30N 34°15' W 119°16'0 0.0
2018-Jun-18 14:00N 34°15' W 119°16'0 0.0
2018-Jun-18 13:30N 34°15' W 119°16'0 0.0
2018-Jun-18 13:00N 34°15' W 119°16'0 0.0
2018-Jun-18 12:28N 34°15' W 119°16'0 0.0
2018-Jun-18 11:57N 34°15' W 119°16'0 0.0
2018-Jun-18 11:24N 34°15' W 119°16'0 0.0
2018-Jun-18 10:59N 34°15' W 119°16'0 0.0
2018-Jun-18 10:30N 34°15' W 119°16'0 0.0
2018-Jun-18 10:00N 34°15' W 119°16'0 0.0
2018-Jun-18 09:30N 34°15' W 119°16'0 0.0
2018-Jun-18 08:58N 34°15' W 119°16'0 0.0
2018-Jun-18 08:30N 34°15' W 119°16'0 0.0
2018-Jun-18 07:58N 34°15' W 119°16'0 0.0
2018-Jun-18 07:30N 34°15' W 119°16'0 0.0
2018-Jun-18 07:00N 34°15' W 119°16'0 0.0
2018-Jun-18 06:29N 34°15' W 119°16'0 0.0
2018-Jun-18 05:59N 34°15' W 119°16'0 0.0
2018-Jun-18 05:30N 34°15' W 119°16'0 0.0
2018-Jun-18 04:57N 34°15' W 119°16'0 0.0
2018-Jun-18 04:29N 34°15' W 119°16'0 0.0
2018-Jun-18 03:59N 34°15' W 119°16'0 0.0
2018-Jun-18 03:29N 34°15' W 119°16'0 0.0
2018-Jun-18 02:59N 34°15' W 119°16'0 0.0
2018-Jun-18 02:30N 34°15' W 119°16'0 0.0
2018-Jun-18 02:00N 34°15' W 119°16'0 0.0
2018-Jun-18 01:30N 34°15' W 119°16'0 0.7
2018-Jun-18 00:59N 34°15' W 119°16'1019.7
2018-Jun-18 00:29N 34°08' W 119°25'3 6.0
2018-Jun-17 23:58N 34°07' W 119°28'5 9.7
2018-Jun-17 23:24N 34°03' W 119°33'0 0.1
2018-Jun-17 23:00N 34°03' W 119°33'5 9.1
2018-Jun-17 22:29N 34°04' W 119°39'1 2.9
2018-Jun-17 22:00N 34°04' W 119°40'0 0.3
2018-Jun-17 21:31N 34°03' W 119°40'2 4.7
2018-Jun-17 21:00N 34°01' W 119°41'0 0.0
2018-Jun-17 20:30N 34°01' W 119°41'0 0.0
2018-Jun-17 20:00N 34°01' W 119°41'0 0.0
2018-Jun-17 19:30N 34°01' W 119°41'0 0.0
2018-Jun-17 19:00N 34°01' W 119°41'0 0.0
2018-Jun-17 18:30N 34°01' W 119°41'5 9.3
2018-Jun-17 17:59N 34°03' W 119°36'2 3.6
2018-Jun-17 17:26N 34°03' W 119°33'4 9.0
2018-Jun-17 17:00N 34°05' W 119°29'1019.3
2018-Jun-17 16:29N 34°12' W 119°20'510.0
2018-Jun-17 16:00N 34°15' W 119°16'0 0.0
2018-Jun-17 15:29N 34°15' W 119°16'0 0.0
2018-Jun-17 15:00N 34°15' W 119°16'0 0.0
2018-Jun-17 14:30N 34°15' W 119°16'0 0.0
2018-Jun-17 14:01N 34°15' W 119°16'0 0.0
2018-Jun-17 13:30N 34°15' W 119°16'0 0.0
2018-Jun-17 13:00N 34°15' W 119°16'0 0.0
2018-Jun-17 12:31N 34°15' W 119°16'0 0.0
2018-Jun-17 12:01N 34°15' W 119°16'0 0.0
2018-Jun-17 11:30N 34°15' W 119°16'0 0.0
2018-Jun-17 11:00N 34°15' W 119°16'0 0.0
2018-Jun-17 10:30N 34°15' W 119°16'0 0.0
2018-Jun-17 10:00N 34°15' W 119°16'0 0.0
2018-Jun-17 09:29N 34°15' W 119°16'0 0.0
2018-Jun-17 08:59N 34°15' W 119°16'0 0.0
2018-Jun-17 08:30N 34°15' W 119°16'0 0.0
2018-Jun-17 08:00N 34°15' W 119°16'0 0.0
2018-Jun-17 07:31N 34°15' W 119°16'0 0.0
2018-Jun-17 06:59N 34°15' W 119°16'0 0.0
2018-Jun-17 06:30N 34°15' W 119°16'0 0.0
2018-Jun-17 06:00N 34°15' W 119°16'0 0.0
2018-Jun-17 05:30N 34°15' W 119°16'0 0.0
2018-Jun-17 04:59N 34°15' W 119°16'0 0.0
2018-Jun-17 04:29N 34°15' W 119°16'0 0.0
2018-Jun-17 04:00N 34°15' W 119°16'0 0.0
2018-Jun-17 03:29N 34°15' W 119°16'0 0.0
2018-Jun-17 03:00N 34°15' W 119°16'0 0.0
2018-Jun-17 02:30N 34°15' W 119°16'0 0.0
2018-Jun-17 02:00N 34°15' W 119°16'0 0.0
2018-Jun-17 01:31N 34°15' W 119°16'0 0.6
2018-Jun-17 00:59N 34°15' W 119°16'918.4
2018-Jun-17 00:28N 34°08' W 119°24'3 6.1
2018-Jun-16 23:59N 34°07' W 119°27'711.6
2018-Jun-16 23:25N 34°03' W 119°33'0 0.1
2018-Jun-16 23:00N 34°03' W 119°33'1 1.1
2018-Jun-16 22:27N 34°03' W 119°33'0 0.0
2018-Jun-16 21:58N 34°03' W 119°33'0 0.0
2018-Jun-16 21:30N 34°03' W 119°33'0 0.3
2018-Jun-16 20:58N 34°03' W 119°33'0 1.0
2018-Jun-16 20:30N 34°03' W 119°33'0 0.0
2018-Jun-16 19:49N 34°03' W 119°33'0 0.1
2018-Jun-16 19:29N 34°03' W 119°33'4 8.1
2018-Jun-16 19:00N 34°01' W 119°38'3 5.5
2018-Jun-16 18:30N 34°01' W 119°41'4 6.9
2018-Jun-16 17:58N 34°03' W 119°38'3 7.1
2018-Jun-16 17:29N 34°03' W 119°33'610.9
2018-Jun-16 16:58N 34°06' W 119°27'818.4
2018-Jun-16 16:30N 34°12' W 119°21'5 9.7
2018-Jun-16 16:00N 34°15' W 119°16'0 0.0
2018-Jun-16 15:31N 34°15' W 119°16'0 0.0
2018-Jun-16 15:00N 34°15' W 119°16'0 0.0
2018-Jun-16 14:30N 34°15' W 119°16'0 0.0
2018-Jun-16 14:00N 34°15' W 119°16'0 0.0
2018-Jun-16 13:30N 34°15' W 119°16'0 0.0
2018-Jun-16 12:58N 34°15' W 119°16'0 0.0
2018-Jun-16 12:28N 34°15' W 119°16'0 0.0
2018-Jun-16 12:00N 34°15' W 119°16'0 0.0
2018-Jun-16 11:30N 34°15' W 119°16'0 0.0
2018-Jun-16 10:57N 34°15' W 119°16'0 0.0
2018-Jun-16 10:28N 34°15' W 119°16'0 0.0
2018-Jun-16 09:59N 34°15' W 119°16'0 0.0
2018-Jun-16 09:29N 34°15' W 119°16'0 0.0
2018-Jun-16 09:00N 34°15' W 119°16'0 0.0
2018-Jun-16 08:03N 34°15' W 119°16'0 0.0
2018-Jun-16 07:53N 34°15' W 119°16'0 0.0
2018-Jun-16 07:29N 34°15' W 119°16'0 0.0
2018-Jun-16 06:58N 34°15' W 119°16'0 0.0
2018-Jun-16 06:26N 34°15' W 119°16'0 0.0
2018-Jun-16 06:00N 34°15' W 119°16'0 0.0
2018-Jun-16 05:25N 34°15' W 119°16'0 0.0
2018-Jun-16 05:00N 34°15' W 119°16'0 0.0
2018-Jun-16 03:54N 34°15' W 119°16'0 0.0
2018-Jun-16 03:20N 34°15' W 119°16'0 0.0
2018-Jun-16 02:59N 34°15' W 119°16'0 0.0
2018-Jun-16 02:29N 34°15' W 119°16'0 0.0
2018-Jun-16 01:59N 34°15' W 119°16'0 0.0
2018-Jun-16 01:27N 34°15' W 119°16'0 0.0
2018-Jun-16 00:39N 34°15' W 119°16'0 0.0
2018-Jun-16 00:20N 34°15' W 119°16'0 0.0
2018-Jun-15 23:52N 34°15' W 119°16'0 0.2
2018-Jun-15 23:29N 34°15' W 119°16'815.4
2018-Jun-15 22:57N 34°10' W 119°24'1011.6
2018-Jun-15 22:03N 34°03' W 119°33'0 0.4
2018-Jun-15 21:56N 34°03' W 119°33'0 0.0
2018-Jun-15 21:30N 34°03' W 119°33'0 0.0
2018-Jun-15 20:58N 34°03' W 119°33'0 0.0
2018-Jun-15 20:15N 34°03' W 119°33'0 0.0
2018-Jun-15 19:49N 34°03' W 119°33'0 0.0
2018-Jun-15 19:27N 34°03' W 119°33'0 0.0
2018-Jun-15 18:59N 34°03' W 119°33'0 0.1
2018-Jun-15 18:28N 34°03' W 119°33'2 3.4
2018-Jun-15 17:44N 34°05' W 119°32'516.2
2018-Jun-15 17:24N 34°08' W 119°26'1018.6
2018-Jun-15 16:53N 34°14' W 119°17'1 2.8
2018-Jun-15 16:28N 34°15' W 119°16'0 0.4
2018-Jun-15 15:54N 34°14' W 119°16'0 0.4
2018-Jun-15 15:25N 34°15' W 119°16'0 0.0
2018-Jun-15 14:55N 34°15' W 119°16'0 0.0
2018-Jun-15 14:25N 34°15' W 119°16'0 0.0
2018-Jun-15 13:57N 34°15' W 119°16'0 0.0
2018-Jun-15 13:30N 34°15' W 119°16'0 0.0
2018-Jun-15 12:58N 34°15' W 119°16'0 0.0
2018-Jun-15 12:25N 34°15' W 119°16'0 0.0
2018-Jun-15 12:00N 34°15' W 119°16'0 0.0
2018-Jun-15 11:29N 34°15' W 119°16'0 0.0
2018-Jun-15 10:54N 34°15' W 119°16'0 0.0
2018-Jun-15 10:26N 34°15' W 119°16'0 0.0
2018-Jun-15 09:58N 34°15' W 119°16'0 0.0
2018-Jun-15 09:24N 34°15' W 119°16'0 0.0
2018-Jun-15 08:53N 34°15' W 119°16'0 0.0
2018-Jun-15 08:27N 34°15' W 119°16'0 0.0
2018-Jun-15 07:31N 34°15' W 119°16'0 0.0
2018-Jun-15 07:23N 34°15' W 119°16'0 0.0
2018-Jun-15 06:55N 34°15' W 119°16'0 0.0
2018-Jun-15 06:23N 34°15' W 119°16'0 0.0
2018-Jun-15 05:46N 34°15' W 119°16'0 0.0
2018-Jun-15 05:22N 34°15' W 119°16'0 0.0
2018-Jun-15 04:57N 34°15' W 119°16'0 0.0
2018-Jun-15 04:25N 34°15' W 119°16'0 0.0
2018-Jun-15 03:45N 34°15' W 119°16'0 0.0
2018-Jun-15 03:25N 34°15' W 119°16'0 0.0
2018-Jun-15 02:49N 34°15' W 119°16'0 0.0
2018-Jun-15 02:08N 34°15' W 119°16'0 0.0
2018-Jun-15 01:54N 34°15' W 119°16'0 0.0
2018-Jun-15 01:28N 34°15' W 119°16'0 0.0
2018-Jun-15 01:00N 34°15' W 119°16'0 0.0
2018-Jun-15 00:28N 34°15' W 119°16'0 0.0
2018-Jun-15 00:00N 34°15' W 119°16'0 0.0
2018-Jun-14 23:30N 34°15' W 119°16'0 0.0
2018-Jun-14 22:57N 34°15' W 119°16'0 0.0
2018-Jun-14 22:30N 34°15' W 119°16'0 0.0
2018-Jun-14 22:00N 34°15' W 119°16'0 0.0
2018-Jun-14 21:29N 34°15' W 119°16'0 0.0
2018-Jun-14 20:56N 34°15' W 119°16'0 0.0
2018-Jun-14 20:30N 34°15' W 119°16'0 0.0
2018-Jun-14 20:00N 34°15' W 119°16'0 0.0
2018-Jun-14 19:30N 34°15' W 119°16'0 0.0
2018-Jun-14 18:58N 34°15' W 119°16'0 0.0
2018-Jun-14 18:30N 34°15' W 119°16'0 0.0
2018-Jun-14 17:59N 34°15' W 119°16'0 0.0
2018-Jun-14 17:29N 34°15' W 119°16'0 0.0
2018-Jun-14 17:00N 34°15' W 119°16'0 0.0
2018-Jun-14 16:29N 34°15' W 119°16'0 0.0
2018-Jun-14 16:00N 34°15' W 119°16'0 0.0
2018-Jun-14 15:30N 34°15' W 119°16'0 0.0
2018-Jun-14 15:00N 34°15' W 119°16'0 0.0
2018-Jun-14 14:30N 34°15' W 119°16'0 0.0
2018-Jun-14 14:00N 34°15' W 119°16'0 0.0
2018-Jun-14 13:28N 34°15' W 119°16'0 0.0
2018-Jun-14 12:59N 34°15' W 119°16'0 0.0
2018-Jun-14 12:29N 34°15' W 119°16'0 0.0
2018-Jun-14 11:59N 34°15' W 119°16'0 0.0
2018-Jun-14 11:26N 34°15' W 119°16'0 0.0
2018-Jun-14 11:00N 34°15' W 119°16'0 0.0
2018-Jun-14 10:30N 34°15' W 119°16'0 0.0
2018-Jun-14 10:00N 34°15' W 119°16'0 0.0
2018-Jun-14 09:27N 34°15' W 119°16'0 0.0
2018-Jun-14 09:00N 34°15' W 119°16'0 0.0
2018-Jun-14 08:30N 34°15' W 119°16'0 0.0
2018-Jun-14 07:59N 34°15' W 119°16'0 0.0
2018-Jun-14 07:27N 34°15' W 119°16'0 0.0
2018-Jun-14 06:59N 34°15' W 119°16'0 0.0
2018-Jun-14 06:30N 34°15' W 119°16'0 0.0
2018-Jun-14 06:00N 34°15' W 119°16'0 0.0
2018-Jun-14 05:30N 34°15' W 119°16'0 0.0
2018-Jun-14 04:58N 34°15' W 119°16'0 0.0
2018-Jun-14 04:30N 34°15' W 119°16'0 0.0
2018-Jun-14 04:00N 34°15' W 119°16'0 0.0
2018-Jun-14 03:30N 34°15' W 119°16'0 0.0
2018-Jun-14 03:00N 34°15' W 119°16'0 0.0
2018-Jun-14 02:30N 34°15' W 119°16'0 0.0
2018-Jun-14 01:55N 34°15' W 119°16'0 0.0
2018-Jun-14 01:30N 34°15' W 119°16'0 0.0
2018-Jun-14 01:00N 34°15' W 119°16'0 0.3
2018-Jun-14 00:30N 34°15' W 119°16'816.2
2018-Jun-14 00:00N 34°10' W 119°24'815.2
2018-Jun-13 23:27N 34°05' W 119°32'2 4.2
2018-Jun-13 22:57N 34°03' W 119°33'0 0.2
2018-Jun-13 22:30N 34°03' W 119°33'0 0.0
2018-Jun-13 22:00N 34°03' W 119°33'0 0.0
2018-Jun-13 21:29N 34°03' W 119°33'0 0.0
2018-Jun-13 21:00N 34°03' W 119°33'0 0.1
2018-Jun-13 20:30N 34°03' W 119°33'0 0.0
2018-Jun-13 20:00N 34°03' W 119°33'0 0.0
2018-Jun-13 19:25N 34°03' W 119°33'0 0.0
2018-Jun-13 19:00N 34°03' W 119°33'0 0.0
2018-Jun-13 18:30N 34°03' W 119°33'0 0.1
2018-Jun-13 18:00N 34°03' W 119°33'714.1
2018-Jun-13 17:30N 34°08' W 119°27'714.6
2018-Jun-13 17:01N 34°12' W 119°20'4 8.1
2018-Jun-13 16:27N 34°15' W 119°16'0 0.0
2018-Jun-13 16:00N 34°15' W 119°16'0 0.0
2018-Jun-13 15:29N 34°15' W 119°16'0 0.0
2018-Jun-13 15:00N 34°15' W 119°16'0 0.0
2018-Jun-13 14:30N 34°15' W 119°16'0 0.0
2018-Jun-13 13:41N 34°15' W 119°16'0 0.0
2018-Jun-13 13:27N 34°15' W 119°16'0 0.0
2018-Jun-13 13:00N 34°15' W 119°16'0 0.0
2018-Jun-13 12:23N 34°15' W 119°16'0 0.0
2018-Jun-13 12:00N 34°15' W 119°16'0 0.0
2018-Jun-13 11:30N 34°15' W 119°16'0 0.0
2018-Jun-13 10:59N 34°15' W 119°16'0 0.0
2018-Jun-13 10:24N 34°15' W 119°16'0 0.0
2018-Jun-13 09:58N 34°15' W 119°16'0 0.0
2018-Jun-13 09:27N 34°15' W 119°16'0 0.0
2018-Jun-13 08:21N 34°15' W 119°16'0 0.0
2018-Jun-13 08:00N 34°15' W 119°16'0 0.0
2018-Jun-13 07:03N 34°15' W 119°16'0 0.0
2018-Jun-13 06:53N 34°15' W 119°16'0 0.0
2018-Jun-13 06:30N 34°15' W 119°16'0 0.0
2018-Jun-13 05:53N 34°15' W 119°16'0 0.0
2018-Jun-13 05:29N 34°15' W 119°16'0 0.0
2018-Jun-13 04:58N 34°15' W 119°16'0 0.0
2018-Jun-13 04:30N 34°15' W 119°16'0 0.0
2018-Jun-13 04:00N 34°15' W 119°16'0 0.0
2018-Jun-13 02:55N 34°15' W 119°16'0 0.0
2018-Jun-13 02:28N 34°15' W 119°16'0 0.0
2018-Jun-13 01:58N 34°15' W 119°16'0 0.0
2018-Jun-13 01:29N 34°15' W 119°16'0 0.0
2018-Jun-13 01:00N 34°15' W 119°16'0 0.0
2018-Jun-13 00:30N 34°15' W 119°16'0 0.0
2018-Jun-13 00:00N 34°15' W 119°16'0 0.7
2018-Jun-12 23:30N 34°15' W 119°16'1019.7
2018-Jun-12 23:01N 34°05' W 119°19'5 9.4
2018-Jun-12 22:30N 34°01' W 119°21'510.0
2018-Jun-12 22:00N 34°03' W 119°27'5 9.3
2018-Jun-12 21:31N 34°06' W 119°31'816.7
2018-Jun-12 21:00N 34°11' W 119°22'713.1
2018-Jun-12 20:30N 34°15' W 119°16'0 0.0
2018-Jun-12 20:00N 34°15' W 119°16'510.0
2018-Jun-12 19:30N 34°12' W 119°21'1020.9
2018-Jun-12 19:00N 34°06' W 119°32'5 9.4
2018-Jun-12 18:28N 34°03' W 119°27'5 9.9
2018-Jun-12 18:00N 34°01' W 119°22'2 4.2
2018-Jun-12 17:30N 34°03' W 119°21'714.2
2018-Jun-12 17:00N 34°10' W 119°18'510.9
2018-Jun-12 16:30N 34°15' W 119°16'0 0.1
2018-Jun-12 16:00N 34°15' W 119°16'0 0.0
2018-Jun-12 15:30N 34°15' W 119°16'0 0.0
2018-Jun-12 15:00N 34°15' W 119°16'0 0.0
2018-Jun-12 14:29N 34°15' W 119°16'0 0.0
2018-Jun-12 14:00N 34°15' W 119°16'0 0.0
2018-Jun-12 13:30N 34°15' W 119°16'0 0.0
2018-Jun-12 12:59N 34°15' W 119°16'0 0.0
2018-Jun-12 12:30N 34°15' W 119°16'0 0.0
2018-Jun-12 12:00N 34°15' W 119°16'0 0.0
2018-Jun-12 11:30N 34°15' W 119°16'0 0.0
2018-Jun-12 11:00N 34°15' W 119°16'0 0.0
2018-Jun-12 10:30N 34°15' W 119°16'0 0.0
2018-Jun-12 10:00N 34°15' W 119°16'0 0.0
2018-Jun-12 09:30N 34°15' W 119°16'0 0.0
2018-Jun-12 09:00N 34°15' W 119°16'0 0.0
2018-Jun-12 08:30N 34°15' W 119°16'0 0.0
2018-Jun-12 08:00N 34°15' W 119°16'0 0.0
2018-Jun-12 07:30N 34°15' W 119°16'0 0.0
2018-Jun-12 07:00N 34°15' W 119°16'0 0.0
2018-Jun-12 06:30N 34°15' W 119°16'0 0.0
2018-Jun-12 05:57N 34°15' W 119°16'0 0.0
2018-Jun-12 05:24N 34°15' W 119°16'0 0.0
2018-Jun-12 05:00N 34°15' W 119°16'0 0.0
2018-Jun-12 04:30N 34°15' W 119°16'0 0.0
2018-Jun-12 04:00N 34°15' W 119°16'0 0.0
2018-Jun-12 03:30N 34°15' W 119°16'0 0.0
2018-Jun-12 02:58N 34°15' W 119°16'0 0.0
2018-Jun-12 02:29N 34°15' W 119°16'0 0.0
2018-Jun-12 01:54N 34°15' W 119°16'0 0.0
2018-Jun-12 01:30N 34°15' W 119°16'0 0.0
2018-Jun-12 00:56N 34°15' W 119°16'0 0.0
2018-Jun-12 00:30N 34°15' W 119°16'0 0.1
2018-Jun-11 23:57N 34°15' W 119°16'715.4
2018-Jun-11 23:30N 34°11' W 119°23'1020.2
2018-Jun-11 23:00N 34°06' W 119°34'2 4.3
2018-Jun-11 22:30N 34°04' W 119°35'2 3.8
2018-Jun-11 22:00N 34°03' W 119°33'0 0.1
2018-Jun-11 21:30N 34°03' W 119°33'0 0.0
2018-Jun-11 20:58N 34°03' W 119°33'0 0.0
2018-Jun-11 20:30N 34°03' W 119°33'0 0.0
2018-Jun-11 20:00N 34°03' W 119°33'0 0.0
2018-Jun-11 19:29N 34°03' W 119°33'0 0.0
2018-Jun-11 19:00N 34°03' W 119°33'0 0.0
2018-Jun-11 18:30N 34°03' W 119°33'0 0.1
2018-Jun-11 18:00N 34°03' W 119°33'1017.5
2018-Jun-11 17:25N 34°09' W 119°24'613.9
2018-Jun-11 16:59N 34°13' W 119°18'2 3.6
2018-Jun-11 16:21N 34°15' W 119°16'0 0.0
2018-Jun-11 16:00N 34°15' W 119°16'0 0.0
2018-Jun-11 15:30N 34°15' W 119°16'0 0.0
2018-Jun-11 15:00N 34°15' W 119°16'0 0.0
2018-Jun-11 14:29N 34°15' W 119°16'0 0.0
2018-Jun-11 14:00N 34°15' W 119°16'0 0.0
2018-Jun-11 13:28N 34°15' W 119°16'0 0.0
2018-Jun-11 12:59N 34°15' W 119°16'0 0.0
2018-Jun-11 12:29N 34°15' W 119°16'0 0.0
2018-Jun-11 11:58N 34°15' W 119°16'0 0.0
2018-Jun-11 11:27N 34°15' W 119°16'0 0.0
2018-Jun-11 10:59N 34°15' W 119°16'0 0.0
2018-Jun-11 10:30N 34°15' W 119°16'0 0.0
2018-Jun-11 10:00N 34°15' W 119°16'0 0.0
2018-Jun-11 09:29N 34°15' W 119°16'0 0.0
2018-Jun-11 09:00N 34°15' W 119°16'0 0.0
2018-Jun-11 08:30N 34°15' W 119°16'0 0.0
2018-Jun-11 08:00N 34°15' W 119°16'0 0.0
2018-Jun-11 07:30N 34°15' W 119°16'0 0.0
2018-Jun-11 07:00N 34°15' W 119°16'0 0.0
2018-Jun-11 06:29N 34°15' W 119°16'0 0.0
2018-Jun-11 06:00N 34°15' W 119°16'0 0.0
2018-Jun-11 05:30N 34°15' W 119°16'0 0.0
2018-Jun-11 05:00N 34°15' W 119°16'0 0.0
2018-Jun-11 04:30N 34°15' W 119°16'0 0.0
2018-Jun-11 04:00N 34°15' W 119°16'0 0.0
2018-Jun-11 03:28N 34°15' W 119°16'0 0.0
2018-Jun-11 03:00N 34°15' W 119°16'0 0.0
2018-Jun-11 02:30N 34°15' W 119°16'0 0.0
2018-Jun-11 02:00N 34°15' W 119°16'0 0.0
2018-Jun-11 01:30N 34°15' W 119°16'0 0.0
2018-Jun-11 01:00N 34°15' W 119°16'0 0.6
2018-Jun-11 00:30N 34°15' W 119°16'917.9
2018-Jun-11 00:00N 34°09' W 119°25'1018.7
2018-Jun-10 23:29N 34°03' W 119°33'0 0.1
2018-Jun-10 23:00N 34°03' W 119°33'612.1
2018-Jun-10 22:29N 34°01' W 119°41'0 0.9
2018-Jun-10 22:00N 34°01' W 119°41'0 0.0
2018-Jun-10 21:30N 34°01' W 119°41'0 0.0
2018-Jun-10 21:00N 34°01' W 119°41'0 0.0
2018-Jun-10 20:28N 34°01' W 119°41'0 0.0
2018-Jun-10 20:00N 34°01' W 119°41'0 0.0
2018-Jun-10 19:29N 34°01' W 119°41'0 0.0
2018-Jun-10 19:00N 34°01' W 119°41'0 0.2
2018-Jun-10 18:30N 34°01' W 119°41'612.8
2018-Jun-10 18:00N 34°04' W 119°34'1 1.9
2018-Jun-10 17:29N 34°03' W 119°33'612.5
2018-Jun-10 17:00N 34°07' W 119°28'917.7
2018-Jun-10 16:29N 34°13' W 119°19'3 6.6
2018-Jun-10 15:58N 34°15' W 119°16'0 0.0
2018-Jun-10 15:29N 34°15' W 119°16'0 0.1
2018-Jun-10 14:59N 34°15' W 119°16'0 0.1
2018-Jun-10 14:00N 34°15' W 119°16'0 0.0
2018-Jun-10 13:30N 34°15' W 119°16'0 0.0
2018-Jun-10 13:00N 34°15' W 119°16'0 0.0
2018-Jun-10 12:29N 34°15' W 119°16'0 0.0
2018-Jun-10 12:00N 34°15' W 119°16'0 0.0
2018-Jun-10 11:30N 34°15' W 119°16'0 0.0
2018-Jun-10 11:00N 34°15' W 119°16'0 0.0
2018-Jun-10 10:30N 34°15' W 119°16'0 0.0
2018-Jun-10 10:00N 34°15' W 119°16'0 0.0
2018-Jun-10 09:29N 34°15' W 119°16'0 0.0
2018-Jun-10 08:59N 34°15' W 119°16'0 0.0
2018-Jun-10 08:30N 34°15' W 119°16'0 0.0
2018-Jun-10 08:00N 34°15' W 119°16'0 0.0
2018-Jun-10 07:30N 34°15' W 119°16'0 0.0
2018-Jun-10 06:58N 34°15' W 119°16'0 0.0
2018-Jun-10 06:29N 34°15' W 119°16'0 0.0
2018-Jun-10 06:00N 34°15' W 119°16'0 0.0
2018-Jun-10 05:30N 34°15' W 119°16'0 0.0
2018-Jun-10 05:00N 34°15' W 119°16'0 0.0
2018-Jun-10 04:31N 34°15' W 119°16'0 0.0
2018-Jun-10 04:00N 34°15' W 119°16'0 0.0
2018-Jun-10 03:30N 34°15' W 119°16'0 0.0
2018-Jun-10 03:00N 34°15' W 119°16'0 0.0
2018-Jun-10 02:30N 34°15' W 119°16'0 0.0
2018-Jun-10 02:00N 34°15' W 119°16'0 0.0
2018-Jun-10 01:26N 34°15' W 119°16'0 0.0
2018-Jun-10 00:47N 34°15' W 119°16'0 1.2
2018-Jun-10 00:29N 34°15' W 119°16'817.1
2018-Jun-10 00:00N 34°10' W 119°24'1018.9
2018-Jun-09 23:30N 34°04' W 119°33'1 1.9
2018-Jun-09 23:00N 34°03' W 119°33'712.4
2018-Jun-09 22:28N 34°01' W 119°41'0 0.1
2018-Jun-09 22:00N 34°01' W 119°41'0 0.0
2018-Jun-09 21:29N 34°01' W 119°41'0 0.1
2018-Jun-09 21:00N 34°01' W 119°41'0 0.0
2018-Jun-09 20:30N 34°01' W 119°41'0 0.1
2018-Jun-09 20:00N 34°01' W 119°41'0 0.0
2018-Jun-09 19:26N 34°01' W 119°41'0 0.0
2018-Jun-09 19:00N 34°01' W 119°41'0 0.0
2018-Jun-09 18:30N 34°01' W 119°41'3 6.2
2018-Jun-09 18:00N 34°03' W 119°38'  
Track history (hours):
 
Tides and Currents Weather Stations Pressure Air Temp Water Temp Dewpoint Dewpoint Depression Visibility Wind Speed Wind Dir Waves Ship Positions

Islander

Owner: SUPER BOAT INC, VENTURA, CA. More information available from US FCC via Universal Licensing System and Coast Guard Vessel Documentation Center.

Last reported at 2018-Jun-19 17:28 UTC. Time now 2018-Jun-19 17:46 UTC.
Position N 34°11' W 119°19'.

Length 20 m; draft 2.1 m.

Type: Passenger vessel. MMSI: 366813530.

Date/timePositionNaut miles runAvg speedWind from/ knotsBaromVisibWave heightAir tempDewpointWater temp
2018-Jun-19 17:28N 34°11' W 119°19'4 9.0
2018-Jun-19 17:00N 34°15' W 119°16'0 0.1
2018-Jun-19 16:30N 34°15' W 119°16'0 0.0
2018-Jun-19 15:58N 34°15' W 119°16'0 0.0
2018-Jun-19 15:30N 34°15' W 119°16'0 0.0
2018-Jun-19 15:00N 34°15' W 119°16'0 0.0
2018-Jun-19 14:28N 34°15' W 119°16'0 0.0
2018-Jun-19 13:59N 34°15' W 119°16'0 0.0
2018-Jun-19 13:28N 34°15' W 119°16'0 0.0
2018-Jun-19 12:58N 34°15' W 119°16'0 0.0
2018-Jun-19 12:30N 34°15' W 119°16'0 0.0
2018-Jun-19 11:59N 34°15' W 119°16'0 0.0
2018-Jun-19 11:30N 34°15' W 119°16'0 0.0
2018-Jun-19 11:00N 34°15' W 119°16'0 0.0
2018-Jun-19 10:30N 34°15' W 119°16'0 0.0
2018-Jun-19 09:59N 34°15' W 119°16'0 0.0
2018-Jun-19 09:30N 34°15' W 119°16'0 0.0
2018-Jun-19 08:59N 34°15' W 119°16'0 0.0
2018-Jun-19 08:27N 34°15' W 119°16'0 0.0
2018-Jun-19 07:58N 34°15' W 119°16'0 0.0
2018-Jun-19 07:30N 34°15' W 119°16'0 0.0
2018-Jun-19 06:59N 34°15' W 119°16'0 0.0
2018-Jun-19 06:28N 34°15' W 119°16'0 0.0
2018-Jun-19 06:00N 34°15' W 119°16'0 0.0
2018-Jun-19 05:31N 34°15' W 119°16'0 0.0
2018-Jun-19 04:58N 34°15' W 119°16'0 0.0
2018-Jun-19 04:29N 34°15' W 119°16'0 0.0
2018-Jun-19 03:58N 34°15' W 119°16'0 0.0
2018-Jun-19 03:28N 34°15' W 119°16'0 0.0
2018-Jun-19 03:00N 34°15' W 119°16'0 0.0
2018-Jun-19 02:30N 34°15' W 119°16'0 0.0
2018-Jun-19 01:59N 34°15' W 119°16'0 0.0
2018-Jun-19 01:30N 34°15' W 119°16'0 0.0
2018-Jun-19 01:00N 34°15' W 119°16'0 0.1
2018-Jun-19 00:30N 34°15' W 119°16'815.8
2018-Jun-19 00:00N 34°11' W 119°24'917.4
2018-Jun-18 23:30N 34°06' W 119°33'612.1
2018-Jun-18 23:00N 34°03' W 119°39'5 9.8
2018-Jun-18 22:30N 34°03' W 119°45'713.1
2018-Jun-18 21:59N 34°05' W 119°53'918.9
2018-Jun-18 21:29N 34°00' W 120°03'1 2.9
2018-Jun-18 21:00N 34°02' W 120°03'0 0.0
2018-Jun-18 20:30N 34°02' W 120°03'0 0.0
2018-Jun-18 20:00N 34°02' W 120°03'0 0.0
2018-Jun-18 19:30N 34°02' W 120°03'0 0.0
2018-Jun-18 19:00N 34°02' W 120°03'1 2.7
2018-Jun-18 18:30N 34°01' W 120°03'816.2
2018-Jun-18 18:00N 33°58' W 119°54'1219.2
2018-Jun-18 17:24N 33°58' W 119°40'818.9
2018-Jun-18 16:58N 34°02' W 119°31'2 5.0
2018-Jun-18 16:29N 34°03' W 119°33'4 9.4
2018-Jun-18 16:00N 34°05' W 119°29'1119.4
2018-Jun-18 15:28N 34°13' W 119°19'4 7.7
2018-Jun-18 15:00N 34°15' W 119°16'0 0.0
2018-Jun-18 14:30N 34°15' W 119°16'0 0.0
2018-Jun-18 14:00N 34°15' W 119°16'0 0.0
2018-Jun-18 13:30N 34°15' W 119°16'0 0.0
2018-Jun-18 13:00N 34°15' W 119°16'0 0.0
2018-Jun-18 12:28N 34°15' W 119°16'0 0.0
2018-Jun-18 11:57N 34°15' W 119°16'0 0.0
2018-Jun-18 11:24N 34°15' W 119°16'0 0.0
2018-Jun-18 10:59N 34°15' W 119°16'0 0.0
2018-Jun-18 10:30N 34°15' W 119°16'0 0.0
2018-Jun-18 10:00N 34°15' W 119°16'0 0.0
2018-Jun-18 09:30N 34°15' W 119°16'0 0.0
2018-Jun-18 08:58N 34°15' W 119°16'0 0.0
2018-Jun-18 08:30N 34°15' W 119°16'0 0.0
2018-Jun-18 07:58N 34°15' W 119°16'0 0.0
2018-Jun-18 07:30N 34°15' W 119°16'0 0.0
2018-Jun-18 07:00N 34°15' W 119°16'0 0.0
2018-Jun-18 06:29N 34°15' W 119°16'0 0.0
2018-Jun-18 05:59N 34°15' W 119°16'0 0.0
2018-Jun-18 05:30N 34°15' W 119°16'0 0.0
2018-Jun-18 04:57N 34°15' W 119°16'0 0.0
2018-Jun-18 04:29N 34°15' W 119°16'0 0.0
2018-Jun-18 03:59N 34°15' W 119°16'0 0.0
2018-Jun-18 03:29N 34°15' W 119°16'0 0.0
2018-Jun-18 02:59N 34°15' W 119°16'0 0.0
2018-Jun-18 02:30N 34°15' W 119°16'0 0.0
2018-Jun-18 02:00N 34°15' W 119°16'0 0.0
2018-Jun-18 01:30N 34°15' W 119°16'0 0.7
2018-Jun-18 00:59N 34°15' W 119°16'1019.7
2018-Jun-18 00:29N 34°08' W 119°25'3 6.0
2018-Jun-17 23:58N 34°07' W 119°28'5 9.7
2018-Jun-17 23:24N 34°03' W 119°33'0 0.1
2018-Jun-17 23:00N 34°03' W 119°33'5 9.1
2018-Jun-17 22:29N 34°04' W 119°39'1 2.9
2018-Jun-17 22:00N 34°04' W 119°40'0 0.3
2018-Jun-17 21:31N 34°03' W 119°40'2 4.7
2018-Jun-17 21:00N 34°01' W 119°41'0 0.0
2018-Jun-17 20:30N 34°01' W 119°41'0 0.0
2018-Jun-17 20:00N 34°01' W 119°41'0 0.0
2018-Jun-17 19:30N 34°01' W 119°41'0 0.0
2018-Jun-17 19:00N 34°01' W 119°41'0 0.0
2018-Jun-17 18:30N 34°01' W 119°41'5 9.3
2018-Jun-17 17:59N 34°03' W 119°36'2 3.6
2018-Jun-17 17:26N 34°03' W 119°33'4 9.0
2018-Jun-17 17:00N 34°05' W 119°29'1019.3
2018-Jun-17 16:29N 34°12' W 119°20'510.0
2018-Jun-17 16:00N 34°15' W 119°16'0 0.0
2018-Jun-17 15:29N 34°15' W 119°16'0 0.0
2018-Jun-17 15:00N 34°15' W 119°16'0 0.0
2018-Jun-17 14:30N 34°15' W 119°16'0 0.0
2018-Jun-17 14:01N 34°15' W 119°16'0 0.0
2018-Jun-17 13:30N 34°15' W 119°16'0 0.0
2018-Jun-17 13:00N 34°15' W 119°16'0 0.0
2018-Jun-17 12:31N 34°15' W 119°16'0 0.0
2018-Jun-17 12:01N 34°15' W 119°16'0 0.0
2018-Jun-17 11:30N 34°15' W 119°16'0 0.0
2018-Jun-17 11:00N 34°15' W 119°16'0 0.0
2018-Jun-17 10:30N 34°15' W 119°16'0 0.0
2018-Jun-17 10:00N 34°15' W 119°16'0 0.0
2018-Jun-17 09:29N 34°15' W 119°16'0 0.0
2018-Jun-17 08:59N 34°15' W 119°16'0 0.0
2018-Jun-17 08:30N 34°15' W 119°16'0 0.0
2018-Jun-17 08:00N 34°15' W 119°16'0 0.0
2018-Jun-17 07:31N 34°15' W 119°16'0 0.0
2018-Jun-17 06:59N 34°15' W 119°16'0 0.0
2018-Jun-17 06:30N 34°15' W 119°16'0 0.0
2018-Jun-17 06:00N 34°15' W 119°16'0 0.0
2018-Jun-17 05:30N 34°15' W 119°16'0 0.0
2018-Jun-17 04:59N 34°15' W 119°16'0 0.0
2018-Jun-17 04:29N 34°15' W 119°16'0 0.0
2018-Jun-17 04:00N 34°15' W 119°16'0 0.0
2018-Jun-17 03:29N 34°15' W 119°16'0 0.0
2018-Jun-17 03:00N 34°15' W 119°16'0 0.0
2018-Jun-17 02:30N 34°15' W 119°16'0 0.0
2018-Jun-17 02:00N 34°15' W 119°16'0 0.0
2018-Jun-17 01:31N 34°15' W 119°16'0 0.6
2018-Jun-17 00:59N 34°15' W 119°16'918.4
2018-Jun-17 00:28N 34°08' W 119°24'3 6.1
2018-Jun-16 23:59N 34°07' W 119°27'711.6
2018-Jun-16 23:25N 34°03' W 119°33'0 0.1
2018-Jun-16 23:00N 34°03' W 119°33'1 1.1
2018-Jun-16 22:27N 34°03' W 119°33'0 0.0
2018-Jun-16 21:58N 34°03' W 119°33'0 0.0
2018-Jun-16 21:30N 34°03' W 119°33'0 0.3
2018-Jun-16 20:58N 34°03' W 119°33'0 1.0
2018-Jun-16 20:30N 34°03' W 119°33'0 0.0
2018-Jun-16 19:49N 34°03' W 119°33'0 0.1
2018-Jun-16 19:29N 34°03' W 119°33'4 8.1
2018-Jun-16 19:00N 34°01' W 119°38'3 5.5
2018-Jun-16 18:30N 34°01' W 119°41'4 6.9
2018-Jun-16 17:58N 34°03' W 119°38'3 7.1
2018-Jun-16 17:29N 34°03' W 119°33'610.9
2018-Jun-16 16:58N 34°06' W 119°27'818.4
2018-Jun-16 16:30N 34°12' W 119°21'5 9.7
2018-Jun-16 16:00N 34°15' W 119°16'0 0.0
2018-Jun-16 15:31N 34°15' W 119°16'0 0.0
2018-Jun-16 15:00N 34°15' W 119°16'0 0.0
2018-Jun-16 14:30N 34°15' W 119°16'0 0.0
2018-Jun-16 14:00N 34°15' W 119°16'0 0.0
2018-Jun-16 13:30N 34°15' W 119°16'0 0.0
2018-Jun-16 12:58N 34°15' W 119°16'0 0.0
2018-Jun-16 12:28N 34°15' W 119°16'0 0.0
2018-Jun-16 12:00N 34°15' W 119°16'0 0.0
2018-Jun-16 11:30N 34°15' W 119°16'0 0.0
2018-Jun-16 10:57N 34°15' W 119°16'0 0.0
2018-Jun-16 10:28N 34°15' W 119°16'0 0.0
2018-Jun-16 09:59N 34°15' W 119°16'0 0.0
2018-Jun-16 09:29N 34°15' W 119°16'0 0.0
2018-Jun-16 09:00N 34°15' W 119°16'0 0.0
2018-Jun-16 08:03N 34°15' W 119°16'0 0.0
2018-Jun-16 07:53N 34°15' W 119°16'0 0.0
2018-Jun-16 07:29N 34°15' W 119°16'0 0.0
2018-Jun-16 06:58N 34°15' W 119°16'0 0.0
2018-Jun-16 06:26N 34°15' W 119°16'0 0.0
2018-Jun-16 06:00N 34°15' W 119°16'0 0.0
2018-Jun-16 05:25N 34°15' W 119°16'0 0.0
2018-Jun-16 05:00N 34°15' W 119°16'0 0.0
2018-Jun-16 03:54N 34°15' W 119°16'0 0.0
2018-Jun-16 03:20N 34°15' W 119°16'0 0.0
2018-Jun-16 02:59N 34°15' W 119°16'0 0.0
2018-Jun-16 02:29N 34°15' W 119°16'0 0.0
2018-Jun-16 01:59N 34°15' W 119°16'0 0.0
2018-Jun-16 01:27N 34°15' W 119°16'0 0.0
2018-Jun-16 00:39N 34°15' W 119°16'0 0.0
2018-Jun-16 00:20N 34°15' W 119°16'0 0.0
2018-Jun-15 23:52N 34°15' W 119°16'0 0.2
2018-Jun-15 23:29N 34°15' W 119°16'815.4
2018-Jun-15 22:57N 34°10' W 119°24'1011.6
2018-Jun-15 22:03N 34°03' W 119°33'0 0.4
2018-Jun-15 21:56N 34°03' W 119°33'0 0.0
2018-Jun-15 21:30N 34°03' W 119°33'0 0.0
2018-Jun-15 20:58N 34°03' W 119°33'0 0.0
2018-Jun-15 20:15N 34°03' W 119°33'0 0.0
2018-Jun-15 19:49N 34°03' W 119°33'0 0.0
2018-Jun-15 19:27N 34°03' W 119°33'0 0.0
2018-Jun-15 18:59N 34°03' W 119°33'0 0.1
2018-Jun-15 18:28N 34°03' W 119°33'2 3.4
2018-Jun-15 17:44N 34°05' W 119°32'516.2
2018-Jun-15 17:24N 34°08' W 119°26'1018.6
2018-Jun-15 16:53N 34°14' W 119°17'1 2.8
2018-Jun-15 16:28N 34°15' W 119°16'0 0.4
2018-Jun-15 15:54N 34°14' W 119°16'0 0.4
2018-Jun-15 15:25N 34°15' W 119°16'0 0.0
2018-Jun-15 14:55N 34°15' W 119°16'0 0.0
2018-Jun-15 14:25N 34°15' W 119°16'0 0.0
2018-Jun-15 13:57N 34°15' W 119°16'0 0.0
2018-Jun-15 13:30N 34°15' W 119°16'0 0.0
2018-Jun-15 12:58N 34°15' W 119°16'0 0.0
2018-Jun-15 12:25N 34°15' W 119°16'0 0.0
2018-Jun-15 12:00N 34°15' W 119°16'0 0.0
2018-Jun-15 11:29N 34°15' W 119°16'0 0.0
2018-Jun-15 10:54N 34°15' W 119°16'0 0.0
2018-Jun-15 10:26N 34°15' W 119°16'0 0.0
2018-Jun-15 09:58N 34°15' W 119°16'0 0.0
2018-Jun-15 09:24N 34°15' W 119°16'0 0.0
2018-Jun-15 08:53N 34°15' W 119°16'0 0.0
2018-Jun-15 08:27N 34°15' W 119°16'0 0.0
2018-Jun-15 07:31N 34°15' W 119°16'0 0.0
2018-Jun-15 07:23N 34°15' W 119°16'0 0.0
2018-Jun-15 06:55N 34°15' W 119°16'0 0.0
2018-Jun-15 06:23N 34°15' W 119°16'0 0.0
2018-Jun-15 05:46N 34°15' W 119°16'0 0.0
2018-Jun-15 05:22N 34°15' W 119°16'0 0.0
2018-Jun-15 04:57N 34°15' W 119°16'0 0.0
2018-Jun-15 04:25N 34°15' W 119°16'0 0.0
2018-Jun-15 03:45N 34°15' W 119°16'0 0.0
2018-Jun-15 03:25N 34°15' W 119°16'0 0.0
2018-Jun-15 02:49N 34°15' W 119°16'0 0.0
2018-Jun-15 02:08N 34°15' W 119°16'0 0.0
2018-Jun-15 01:54N 34°15' W 119°16'0 0.0
2018-Jun-15 01:28N 34°15' W 119°16'0 0.0
2018-Jun-15 01:00N 34°15' W 119°16'0 0.0
2018-Jun-15 00:28N 34°15' W 119°16'0 0.0
2018-Jun-15 00:00N 34°15' W 119°16'0 0.0
2018-Jun-14 23:30N 34°15' W 119°16'0 0.0
2018-Jun-14 22:57N 34°15' W 119°16'0 0.0
2018-Jun-14 22:30N 34°15' W 119°16'0 0.0
2018-Jun-14 22:00N 34°15' W 119°16'0 0.0
2018-Jun-14 21:29N 34°15' W 119°16'0 0.0
2018-Jun-14 20:56N 34°15' W 119°16'0 0.0
2018-Jun-14 20:30N 34°15' W 119°16'0 0.0
2018-Jun-14 20:00N 34°15' W 119°16'0 0.0
2018-Jun-14 19:30N 34°15' W 119°16'0 0.0
2018-Jun-14 18:58N 34°15' W 119°16'0 0.0
2018-Jun-14 18:30N 34°15' W 119°16'0 0.0
2018-Jun-14 17:59N 34°15' W 119°16'0 0.0
2018-Jun-14 17:29N 34°15' W 119°16'0 0.0
2018-Jun-14 17:00N 34°15' W 119°16'0 0.0
2018-Jun-14 16:29N 34°15' W 119°16'0 0.0
2018-Jun-14 16:00N 34°15' W 119°16'0 0.0
2018-Jun-14 15:30N 34°15' W 119°16'0 0.0
2018-Jun-14 15:00N 34°15' W 119°16'0 0.0
2018-Jun-14 14:30N 34°15' W 119°16'0 0.0
2018-Jun-14 14:00N 34°15' W 119°16'0 0.0
2018-Jun-14 13:28N 34°15' W 119°16'0 0.0
2018-Jun-14 12:59N 34°15' W 119°16'0 0.0
2018-Jun-14 12:29N 34°15' W 119°16'0 0.0
2018-Jun-14 11:59N 34°15' W 119°16'0 0.0
2018-Jun-14 11:26N 34°15' W 119°16'0 0.0
2018-Jun-14 11:00N 34°15' W 119°16'0 0.0
2018-Jun-14 10:30N 34°15' W 119°16'0 0.0
2018-Jun-14 10:00N 34°15' W 119°16'0 0.0
2018-Jun-14 09:27N 34°15' W 119°16'0 0.0
2018-Jun-14 09:00N 34°15' W 119°16'0 0.0
2018-Jun-14 08:30N 34°15' W 119°16'0 0.0
2018-Jun-14 07:59N 34°15' W 119°16'0 0.0
2018-Jun-14 07:27N 34°15' W 119°16'0 0.0
2018-Jun-14 06:59N 34°15' W 119°16'0 0.0
2018-Jun-14 06:30N 34°15' W 119°16'0 0.0
2018-Jun-14 06:00N 34°15' W 119°16'0 0.0
2018-Jun-14 05:30N 34°15' W 119°16'0 0.0
2018-Jun-14 04:58N 34°15' W 119°16'0 0.0
2018-Jun-14 04:30N 34°15' W 119°16'0 0.0
2018-Jun-14 04:00N 34°15' W 119°16'0 0.0
2018-Jun-14 03:30N 34°15' W 119°16'0 0.0
2018-Jun-14 03:00N 34°15' W 119°16'0 0.0
2018-Jun-14 02:30N 34°15' W 119°16'0 0.0
2018-Jun-14 01:55N 34°15' W 119°16'0 0.0
2018-Jun-14 01:30N 34°15' W 119°16'0 0.0
2018-Jun-14 01:00N 34°15' W 119°16'0 0.3
2018-Jun-14 00:30N 34°15' W 119°16'816.2
2018-Jun-14 00:00N 34°10' W 119°24'815.2
2018-Jun-13 23:27N 34°05' W 119°32'2 4.2
2018-Jun-13 22:57N 34°03' W 119°33'0 0.2
2018-Jun-13 22:30N 34°03' W 119°33'0 0.0
2018-Jun-13 22:00N 34°03' W 119°33'0 0.0
2018-Jun-13 21:29N 34°03' W 119°33'0 0.0
2018-Jun-13 21:00N 34°03' W 119°33'0 0.1
2018-Jun-13 20:30N 34°03' W 119°33'0 0.0
2018-Jun-13 20:00N 34°03' W 119°33'0 0.0
2018-Jun-13 19:25N 34°03' W 119°33'0 0.0
2018-Jun-13 19:00N 34°03' W 119°33'0 0.0
2018-Jun-13 18:30N 34°03' W 119°33'0 0.1
2018-Jun-13 18:00N 34°03' W 119°33'714.1
2018-Jun-13 17:30N 34°08' W 119°27'714.6
2018-Jun-13 17:01N 34°12' W 119°20'4 8.1
2018-Jun-13 16:27N 34°15' W 119°16'0 0.0
2018-Jun-13 16:00N 34°15' W 119°16'0 0.0
2018-Jun-13 15:29N 34°15' W 119°16'0 0.0
2018-Jun-13 15:00N 34°15' W 119°16'0 0.0
2018-Jun-13 14:30N 34°15' W 119°16'0 0.0
2018-Jun-13 13:41N 34°15' W 119°16'0 0.0
2018-Jun-13 13:27N 34°15' W 119°16'0 0.0
2018-Jun-13 13:00N 34°15' W 119°16'0 0.0
2018-Jun-13 12:23N 34°15' W 119°16'0 0.0
2018-Jun-13 12:00N 34°15' W 119°16'0 0.0
2018-Jun-13 11:30N 34°15' W 119°16'0 0.0
2018-Jun-13 10:59N 34°15' W 119°16'0 0.0
2018-Jun-13 10:24N 34°15' W 119°16'0 0.0
2018-Jun-13 09:58N 34°15' W 119°16'0 0.0
2018-Jun-13 09:27N 34°15' W 119°16'0 0.0
2018-Jun-13 08:21N 34°15' W 119°16'0 0.0
2018-Jun-13 08:00N 34°15' W 119°16'0 0.0
2018-Jun-13 07:03N 34°15' W 119°16'0 0.0
2018-Jun-13 06:53N 34°15' W 119°16'0 0.0
2018-Jun-13 06:30N 34°15' W 119°16'0 0.0
2018-Jun-13 05:53N 34°15' W 119°16'0 0.0
2018-Jun-13 05:29N 34°15' W 119°16'0 0.0
2018-Jun-13 04:58N 34°15' W 119°16'0 0.0
2018-Jun-13 04:30N 34°15' W 119°16'0 0.0
2018-Jun-13 04:00N 34°15' W 119°16'0 0.0
2018-Jun-13 02:55N 34°15' W 119°16'0 0.0
2018-Jun-13 02:28N 34°15' W 119°16'0 0.0
2018-Jun-13 01:58N 34°15' W 119°16'0 0.0
2018-Jun-13 01:29N 34°15' W 119°16'0 0.0
2018-Jun-13 01:00N 34°15' W 119°16'0 0.0
2018-Jun-13 00:30N 34°15' W 119°16'0 0.0
2018-Jun-13 00:00N 34°15' W 119°16'0 0.7
2018-Jun-12 23:30N 34°15' W 119°16'1019.7
2018-Jun-12 23:01N 34°05' W 119°19'5 9.4
2018-Jun-12 22:30N 34°01' W 119°21'510.0
2018-Jun-12 22:00N 34°03' W 119°27'5 9.3
2018-Jun-12 21:31N 34°06' W 119°31'816.7
2018-Jun-12 21:00N 34°11' W 119°22'713.1
2018-Jun-12 20:30N 34°15' W 119°16'0 0.0
2018-Jun-12 20:00N 34°15' W 119°16'510.0
2018-Jun-12 19:30N 34°12' W 119°21'1020.9
2018-Jun-12 19:00N 34°06' W 119°32'5 9.4
2018-Jun-12 18:28N 34°03' W 119°27'5 9.9
2018-Jun-12 18:00N 34°01' W 119°22'2 4.2
2018-Jun-12 17:30N 34°03' W 119°21'714.2
2018-Jun-12 17:00N 34°10' W 119°18'510.9
2018-Jun-12 16:30N 34°15' W 119°16'0 0.1
2018-Jun-12 16:00N 34°15' W 119°16'0 0.0
2018-Jun-12 15:30N 34°15' W 119°16'0 0.0
2018-Jun-12 15:00N 34°15' W 119°16'0 0.0
2018-Jun-12 14:29N 34°15' W 119°16'0 0.0
2018-Jun-12 14:00N 34°15' W 119°16'0 0.0
2018-Jun-12 13:30N 34°15' W 119°16'0 0.0
2018-Jun-12 12:59N 34°15' W 119°16'0 0.0
2018-Jun-12 12:30N 34°15' W 119°16'0 0.0
2018-Jun-12 12:00N 34°15' W 119°16'0 0.0
2018-Jun-12 11:30N 34°15' W 119°16'0 0.0
2018-Jun-12 11:00N 34°15' W 119°16'0 0.0
2018-Jun-12 10:30N 34°15' W 119°16'0 0.0
2018-Jun-12 10:00N 34°15' W 119°16'0 0.0
2018-Jun-12 09:30N 34°15' W 119°16'0 0.0
2018-Jun-12 09:00N 34°15' W 119°16'0 0.0
2018-Jun-12 08:30N 34°15' W 119°16'0 0.0
2018-Jun-12 08:00N 34°15' W 119°16'0 0.0
2018-Jun-12 07:30N 34°15' W 119°16'0 0.0
2018-Jun-12 07:00N 34°15' W 119°16'0 0.0
2018-Jun-12 06:30N 34°15' W 119°16'0 0.0
2018-Jun-12 05:57N 34°15' W 119°16'0 0.0
2018-Jun-12 05:24N 34°15' W 119°16'0 0.0
2018-Jun-12 05:00N 34°15' W 119°16'0 0.0
2018-Jun-12 04:30N 34°15' W 119°16'0 0.0
2018-Jun-12 04:00N 34°15' W 119°16'0 0.0
2018-Jun-12 03:30N 34°15' W 119°16'0 0.0
2018-Jun-12 02:58N 34°15' W 119°16'0 0.0
2018-Jun-12 02:29N 34°15' W 119°16'0 0.0
2018-Jun-12 01:54N 34°15' W 119°16'0 0.0
2018-Jun-12 01:30N 34°15' W 119°16'0 0.0
2018-Jun-12 00:56N 34°15' W 119°16'0 0.0
2018-Jun-12 00:30N 34°15' W 119°16'0 0.1
2018-Jun-11 23:57N 34°15' W 119°16'715.4
2018-Jun-11 23:30N 34°11' W 119°23'1020.2
2018-Jun-11 23:00N 34°06' W 119°34'2 4.3
2018-Jun-11 22:30N 34°04' W 119°35'2 3.8
2018-Jun-11 22:00N 34°03' W 119°33'0 0.1
2018-Jun-11 21:30N 34°03' W 119°33'0 0.0
2018-Jun-11 20:58N 34°03' W 119°33'0 0.0
2018-Jun-11 20:30N 34°03' W 119°33'0 0.0
2018-Jun-11 20:00N 34°03' W 119°33'0 0.0
2018-Jun-11 19:29N 34°03' W 119°33'0 0.0
2018-Jun-11 19:00N 34°03' W 119°33'0 0.0
2018-Jun-11 18:30N 34°03' W 119°33'0 0.1
2018-Jun-11 18:00N 34°03' W 119°33'1017.5
2018-Jun-11 17:25N 34°09' W 119°24'613.9
2018-Jun-11 16:59N 34°13' W 119°18'2 3.6
2018-Jun-11 16:21N 34°15' W 119°16'0 0.0
2018-Jun-11 16:00N 34°15' W 119°16'0 0.0
2018-Jun-11 15:30N 34°15' W 119°16'0 0.0
2018-Jun-11 15:00N 34°15' W 119°16'0 0.0
2018-Jun-11 14:29N 34°15' W 119°16'0 0.0
2018-Jun-11 14:00N 34°15' W 119°16'0 0.0
2018-Jun-11 13:28N 34°15' W 119°16'0 0.0
2018-Jun-11 12:59N 34°15' W 119°16'0 0.0
2018-Jun-11 12:29N 34°15' W 119°16'0 0.0
2018-Jun-11 11:58N 34°15' W 119°16'0 0.0
2018-Jun-11 11:27N 34°15' W 119°16'0 0.0
2018-Jun-11 10:59N 34°15' W 119°16'0 0.0
2018-Jun-11 10:30N 34°15' W 119°16'0 0.0
2018-Jun-11 10:00N 34°15' W 119°16'0 0.0
2018-Jun-11 09:29N 34°15' W 119°16'0 0.0
2018-Jun-11 09:00N 34°15' W 119°16'0 0.0
2018-Jun-11 08:30N 34°15' W 119°16'0 0.0
2018-Jun-11 08:00N 34°15' W 119°16'0 0.0
2018-Jun-11 07:30N 34°15' W 119°16'0 0.0
2018-Jun-11 07:00N 34°15' W 119°16'0 0.0
2018-Jun-11 06:29N 34°15' W 119°16'0 0.0
2018-Jun-11 06:00N 34°15' W 119°16'0 0.0
2018-Jun-11 05:30N 34°15' W 119°16'0 0.0
2018-Jun-11 05:00N 34°15' W 119°16'0 0.0
2018-Jun-11 04:30N 34°15' W 119°16'0 0.0
2018-Jun-11 04:00N 34°15' W 119°16'0 0.0
2018-Jun-11 03:28N 34°15' W 119°16'0 0.0
2018-Jun-11 03:00N 34°15' W 119°16'0 0.0
2018-Jun-11 02:30N 34°15' W 119°16'0 0.0
2018-Jun-11 02:00N 34°15' W 119°16'0 0.0
2018-Jun-11 01:30N 34°15' W 119°16'0 0.0
2018-Jun-11 01:00N 34°15' W 119°16'0 0.6
2018-Jun-11 00:30N 34°15' W 119°16'917.9
2018-Jun-11 00:00N 34°09' W 119°25'1018.7
2018-Jun-10 23:29N 34°03' W 119°33'0 0.1
2018-Jun-10 23:00N 34°03' W 119°33'612.1
2018-Jun-10 22:29N 34°01' W 119°41'0 0.9
2018-Jun-10 22:00N 34°01' W 119°41'0 0.0
2018-Jun-10 21:30N 34°01' W 119°41'0 0.0
2018-Jun-10 21:00N 34°01' W 119°41'0 0.0
2018-Jun-10 20:28N 34°01' W 119°41'0 0.0
2018-Jun-10 20:00N 34°01' W 119°41'0 0.0
2018-Jun-10 19:29N 34°01' W 119°41'0 0.0
2018-Jun-10 19:00N 34°01' W 119°41'0 0.2
2018-Jun-10 18:30N 34°01' W 119°41'612.8
2018-Jun-10 18:00N 34°04' W 119°34'1 1.9
2018-Jun-10 17:29N 34°03' W 119°33'612.5
2018-Jun-10 17:00N 34°07' W 119°28'917.7
2018-Jun-10 16:29N 34°13' W 119°19'3 6.6
2018-Jun-10 15:58N 34°15' W 119°16'0 0.0
2018-Jun-10 15:29N 34°15' W 119°16'0 0.1
2018-Jun-10 14:59N 34°15' W 119°16'0 0.1
2018-Jun-10 14:00N 34°15' W 119°16'0 0.0
2018-Jun-10 13:30N 34°15' W 119°16'0 0.0
2018-Jun-10 13:00N 34°15' W 119°16'0 0.0
2018-Jun-10 12:29N 34°15' W 119°16'0 0.0
2018-Jun-10 12:00N 34°15' W 119°16'0 0.0
2018-Jun-10 11:30N 34°15' W 119°16'0 0.0
2018-Jun-10 11:00N 34°15' W 119°16'0 0.0
2018-Jun-10 10:30N 34°15' W 119°16'0 0.0
2018-Jun-10 10:00N 34°15' W 119°16'0 0.0
2018-Jun-10 09:29N 34°15' W 119°16'0 0.0
2018-Jun-10 08:59N 34°15' W 119°16'0 0.0
2018-Jun-10 08:30N 34°15' W 119°16'0 0.0
2018-Jun-10 08:00N 34°15' W 119°16'0 0.0
2018-Jun-10 07:30N 34°15' W 119°16'0 0.0
2018-Jun-10 06:58N 34°15' W 119°16'0 0.0
2018-Jun-10 06:29N 34°15' W 119°16'0 0.0
2018-Jun-10 06:00N 34°15' W 119°16'0 0.0
2018-Jun-10 05:30N 34°15' W 119°16'0 0.0
2018-Jun-10 05:00N 34°15' W 119°16'0 0.0
2018-Jun-10 04:31N 34°15' W 119°16'0 0.0
2018-Jun-10 04:00N 34°15' W 119°16'0 0.0
2018-Jun-10 03:30N 34°15' W 119°16'0 0.0
2018-Jun-10 03:00N 34°15' W 119°16'0 0.0
2018-Jun-10 02:30N 34°15' W 119°16'0 0.0
2018-Jun-10 02:00N 34°15' W 119°16'0 0.0
2018-Jun-10 01:26N 34°15' W 119°16'0 0.0
2018-Jun-10 00:47N 34°15' W 119°16'0 1.2
2018-Jun-10 00:29N 34°15' W 119°16'817.1
2018-Jun-10 00:00N 34°10' W 119°24'1018.9
2018-Jun-09 23:30N 34°04' W 119°33'1 1.9
2018-Jun-09 23:00N 34°03' W 119°33'712.4
2018-Jun-09 22:28N 34°01' W 119°41'0 0.1
2018-Jun-09 22:00N 34°01' W 119°41'0 0.0
2018-Jun-09 21:29N 34°01' W 119°41'0 0.1
2018-Jun-09 21:00N 34°01' W 119°41'0 0.0
2018-Jun-09 20:30N 34°01' W 119°41'0 0.1
2018-Jun-09 20:00N 34°01' W 119°41'0 0.0
2018-Jun-09 19:26N 34°01' W 119°41'0 0.0
2018-Jun-09 19:00N 34°01' W 119°41'0 0.0
2018-Jun-09 18:30N 34°01' W 119°41'3 6.2
2018-Jun-09 18:00N 34°03' W 119°38'  

Dump ship's entire track history